Time;durP1;ratioP1;P1;durP2;ratioP2;P2;SDS_P1;SDS_P2;PMS_P1;PMS_P2;Temp;Humidity;BMP_temperature;BMP_pressure;BME280_temperature;BME280_humidity;BME280_pressure;Samples;Min_cycle;Max_cycle;Signal;HPM_P1;HPM_P2
2022/10/19 00:01:35;;;;;;;7.27;1.73;;;13.10;74.00;;;;;;5009053;28;20047;-81
2022/10/19 00:04:02;;;;;;;6.25;1.40;;;13.10;74.10;;;;;;5004051;28;20842;-80
2022/10/19 00:06:31;;;;;;;6.47;1.50;;;13.10;74.10;;;;;;4991016;28;20051;-81
2022/10/19 00:09:00;;;;;;;6.28;1.30;;;13.00;74.00;;;;;;5020632;28;20054;-80
2022/10/19 00:11:29;;;;;;;3.83;1.20;;;13.00;74.00;;;;;;5010709;28;20054;-80
2022/10/19 00:13:57;;;;;;;5.87;1.40;;;13.00;74.00;;;;;;4992186;28;20054;-80
2022/10/19 00:16:28;;;;;;;5.63;1.52;;;12.90;73.90;;;;;;5008930;28;20354;-80
2022/10/19 00:18:56;;;;;;;3.97;1.30;;;12.90;73.90;;;;;;4992033;28;20053;-80
2022/10/19 00:21:23;;;;;;;4.40;1.13;;;12.90;73.80;;;;;;5008414;28;20058;-80
2022/10/19 00:23:50;;;;;;;4.25;0.80;;;12.90;73.80;;;;;;5008952;28;20050;-80
2022/10/19 00:26:17;;;;;;;5.33;1.20;;;12.80;73.60;;;;;;5008221;28;20500;-80
2022/10/19 00:28:45;;;;;;;6.38;1.15;;;12.80;73.70;;;;;;5008566;28;20728;-80
2022/10/19 00:31:14;;;;;;;4.45;1.05;;;12.70;73.90;;;;;;5008563;28;20042;-80
2022/10/19 00:33:45;;;;;;;5.07;1.30;;;12.70;74.00;;;;;;5008978;28;20061;-80
2022/10/19 00:36:17;;;;;;;5.80;1.20;;;12.70;74.10;;;;;;5008761;28;20684;-80
2022/10/19 00:38:45;;;;;;;5.90;1.03;;;12.70;74.10;;;;;;5008752;28;20133;-81
2022/10/19 00:41:12;;;;;;;6.47;1.42;;;12.70;74.00;;;;;;5008305;28;20246;-80
2022/10/19 00:43:54;;;;;;;5.15;1.23;;;12.60;73.90;;;;;;5009681;28;20464;-80
2022/10/19 00:46:22;;;;;;;5.47;1.27;;;12.60;73.90;;;;;;5008104;28;20580;-80
2022/10/19 00:48:52;;;;;;;6.55;1.40;;;12.50;74.00;;;;;;5008036;28;20050;-80
2022/10/19 00:51:20;;;;;;;4.07;1.30;;;12.50;74.10;;;;;;5008598;28;20050;-80
2022/10/19 00:53:47;;;;;;;5.20;1.15;;;12.50;74.10;;;;;;5007706;28;20282;-80
2022/10/19 00:56:15;;;;;;;5.03;0.85;;;12.50;74.30;;;;;;5008024;28;20093;-80
2022/10/19 00:58:44;;;;;;;4.07;1.00;;;12.50;74.40;;;;;;5008370;28;20050;-80
2022/10/19 01:01:15;;;;;;;5.10;0.75;;;12.50;74.40;;;;;;5008024;28;20129;-80
2022/10/19 01:03:43;;;;;;;3.03;0.70;;;12.50;74.50;;;;;;5004912;28;20047;-80
2022/10/19 01:06:13;;;;;;;5.30;1.40;;;12.50;74.50;;;;;;5002882;28;20262;-80
2022/10/19 01:08:41;;;;;;;4.63;1.00;;;12.50;74.50;;;;;;5024683;28;20130;-80
2022/10/19 01:11:26;;;;;;;5.57;1.20;;;12.40;74.50;;;;;;5006684;28;20489;-80
2022/10/19 01:14:03;;;;;;;5.32;1.33;;;12.40;74.60;;;;;;4988477;28;20051;-80
2022/10/19 01:16:42;;;;;;;4.63;1.20;;;12.40;74.70;;;;;;4992215;28;20054;-80
2022/10/19 01:19:32;;;;;;;3.75;1.00;;;12.30;74.70;;;;;;5024710;28;20759;-80
2022/10/19 01:22:09;;;;;;;6.75;1.30;;;12.30;74.90;;;;;;5013609;28;20134;-80
2022/10/19 01:24:50;;;;;;;5.30;1.23;;;12.30;75.00;;;;;;5008151;28;20089;-80
2022/10/19 01:28:00;;;;;;;5.05;1.15;;;12.20;75.10;;;;;;5009777;28;20051;-80
2022/10/19 01:30:41;;;;;;;5.37;1.50;;;12.20;75.00;;;;;;4915220;28;20059;-81
2022/10/19 01:33:24;;;;;;;6.60;1.50;;;12.20;75.20;;;;;;4947771;28;20843;-80
2022/10/19 01:35:57;;;;;;;6.68;1.60;;;12.20;75.20;;;;;;4991018;28;20586;-80
2022/10/19 01:38:32;;;;;;;6.10;1.52;;;12.20;75.30;;;;;;5008856;28;20046;-80
2022/10/19 01:41:10;;;;;;;4.70;1.25;;;12.20;75.30;;;;;;5011038;28;20050;-80
2022/10/19 01:43:42;;;;;;;6.03;1.20;;;12.10;75.50;;;;;;4994449;28;20058;-80
2022/10/19 01:46:13;;;;;;;5.90;1.38;;;12.10;75.60;;;;;;5011214;28;20290;-81
2022/10/19 01:48:45;;;;;;;5.15;1.50;;;12.10;75.70;;;;;;5011187;28;20571;-80
2022/10/19 01:51:17;;;;;;;4.10;1.40;;;12.10;75.80;;;;;;5010697;28;20720;-81
2022/10/19 01:53:47;;;;;;;4.28;1.33;;;12.10;75.90;;;;;;5007287;28;20540;-80
2022/10/19 01:56:16;;;;;;;6.37;1.73;;;12.10;76.00;;;;;;4996657;28;20105;-80
2022/10/19 01:58:45;;;;;;;5.13;1.30;;;12.00;76.10;;;;;;5011868;28;20276;-80
2022/10/19 02:01:18;;;;;;;4.55;1.45;;;12.00;76.20;;;;;;5010922;28;20061;-80
2022/10/19 02:03:49;;;;;;;4.40;1.10;;;12.00;76.30;;;;;;5009272;28;20504;-80
2022/10/19 02:06:16;;;;;;;5.57;1.48;;;12.00;76.40;;;;;;5011001;28;20089;-81
2022/10/19 02:08:46;;;;;;;3.20;1.20;;;12.00;76.40;;;;;;5010734;28;20421;-80
2022/10/19 02:11:14;;;;;;;5.07;1.48;;;12.00;76.50;;;;;;4994102;28;20345;-80
2022/10/19 02:13:42;;;;;;;6.50;1.50;;;12.00;76.70;;;;;;5010941;28;20138;-80
2022/10/19 02:16:16;;;;;;;3.97;1.25;;;12.00;76.90;;;;;;5026835;28;20050;-80
2022/10/19 02:18:46;;;;;;;4.43;1.10;;;12.00;77.00;;;;;;5010917;28;20137;-80
2022/10/19 02:21:13;;;;;;;5.33;1.00;;;12.00;77.00;;;;;;5018464;28;20156;-80
2022/10/19 02:23:40;;;;;;;4.28;1.30;;;11.90;77.00;;;;;;5027064;28;20768;-80
2022/10/19 02:26:08;;;;;;;3.60;1.20;;;11.90;77.00;;;;;;5010529;28;20602;-81
2022/10/19 02:28:35;;;;;;;3.58;1.10;;;11.90;77.10;;;;;;5010654;28;20060;-80
2022/10/19 02:31:03;;;;;;;5.78;1.30;;;11.90;77.20;;;;;;5010339;28;20784;-80
2022/10/19 02:33:31;;;;;;;4.17;1.07;;;11.90;77.30;;;;;;5010183;28;20051;-80
2022/10/19 02:35:59;;;;;;;5.18;1.40;;;11.90;77.30;;;;;;5010158;28;20655;-80
2022/10/19 02:38:27;;;;;;;3.30;1.00;;;11.90;77.30;;;;;;5008226;28;20065;-80
2022/10/19 02:41:01;;;;;;;4.00;1.10;;;11.90;77.40;;;;;;5009971;28;20050;-80
2022/10/19 02:43:31;;;;;;;6.80;1.20;;;11.90;77.50;;;;;;5026758;28;20506;-80
2022/10/19 02:46:01;;;;;;;3.70;1.10;;;11.90;77.40;;;;;;5011709;28;20174;-80
2022/10/19 02:48:33;;;;;;;5.63;1.13;;;11.90;77.40;;;;;;5011637;28;20250;-79
2022/10/19 02:51:00;;;;;;;3.65;1.00;;;11.90;77.40;;;;;;5009453;28;20042;-80
2022/10/19 02:53:26;;;;;;;6.10;1.20;;;11.90;77.40;;;;;;5010123;28;20042;-80
2022/10/19 02:55:53;;;;;;;5.30;0.95;;;11.90;77.40;;;;;;4992056;28;20139;-81
2022/10/19 02:58:20;;;;;;;5.60;1.00;;;11.80;77.50;;;;;;5009797;28;20598;-80
2022/10/19 03:00:47;;;;;;;5.07;1.17;;;11.80;77.30;;;;;;5010115;28;20282;-80
2022/10/19 03:03:14;;;;;;;5.18;1.27;;;11.80;77.50;;;;;;5010080;28;20094;-80
2022/10/19 03:05:42;;;;;;;4.95;1.30;;;11.80;77.50;;;;;;5009605;28;20058;-80
2022/10/19 03:08:09;;;;;;;5.35;1.15;;;11.80;77.60;;;;;;5009857;28;20126;-80
2022/10/19 03:10:36;;;;;;;4.50;1.20;;;11.80;77.60;;;;;;4999516;28;20070;-80
2022/10/19 03:13:03;;;;;;;3.05;0.80;;;11.70;77.50;;;;;;4992346;28;20749;-80
2022/10/19 03:15:30;;;;;;;8.35;1.00;;;11.70;77.60;;;;;;5009643;28;20145;-80
2022/10/19 03:17:57;;;;;;;5.13;1.13;;;11.70;77.60;;;;;;5010003;28;20054;-80
2022/10/19 03:20:24;;;;;;;4.18;1.00;;;11.70;77.60;;;;;;5001857;28;20493;-80
2022/10/19 03:22:52;;;;;;;3.90;1.03;;;11.70;77.60;;;;;;5019628;28;20160;-80
2022/10/19 03:25:19;;;;;;;4.45;1.10;;;11.70;77.60;;;;;;5009549;28;20280;-80
2022/10/19 03:27:46;;;;;;;6.65;1.33;;;11.70;77.80;;;;;;5011061;28;20189;-80
2022/10/19 03:30:13;;;;;;;5.07;1.20;;;11.70;77.80;;;;;;5007688;28;20740;-80
2022/10/19 03:32:40;;;;;;;6.20;1.20;;;11.70;77.90;;;;;;5010027;28;20138;-80
2022/10/19 03:35:08;;;;;;;5.07;1.10;;;11.70;77.90;;;;;;5009105;28;20051;-80
2022/10/19 03:37:35;;;;;;;4.25;0.98;;;11.70;78.00;;;;;;5009718;28;20345;-80
2022/10/19 03:40:03;;;;;;;3.85;1.10;;;11.70;78.00;;;;;;5009438;28;20058;-80
2022/10/19 03:42:30;;;;;;;5.05;1.20;;;11.70;78.20;;;;;;5009787;28;20081;-80
2022/10/19 03:45:01;;;;;;;4.95;1.10;;;11.60;78.10;;;;;;5009252;28;20503;-80
2022/10/19 03:47:28;;;;;;;5.57;1.17;;;11.60;78.20;;;;;;5005073;28;20054;-80
2022/10/19 03:49:55;;;;;;;4.88;1.10;;;11.60;78.10;;;;;;4994527;28;21213;-80
2022/10/19 03:52:22;;;;;;;6.22;1.30;;;11.60;78.20;;;;;;4991169;28;20050;-80
2022/10/19 03:54:50;;;;;;;4.03;1.00;;;11.60;78.10;;;;;;5025738;28;20138;-80
2022/10/19 03:57:18;;;;;;;6.03;0.90;;;11.60;78.20;;;;;;5009034;28;20050;-80
2022/10/19 03:59:45;;;;;;;4.47;1.10;;;11.50;78.30;;;;;;5008520;28;20152;-80
2022/10/19 04:02:12;;;;;;;4.40;1.20;;;11.50;78.30;;;;;;5008055;28;20277;-80
2022/10/19 04:04:39;;;;;;;4.80;1.00;;;11.50;78.30;;;;;;5007661;28;20046;-80
2022/10/19 04:07:06;;;;;;;6.63;1.10;;;11.50;78.30;;;;;;5008990;28;20054;-80
2022/10/19 04:09:32;;;;;;;4.57;0.95;;;11.50;78.50;;;;;;5025255;28;20449;-80
2022/10/19 04:12:00;;;;;;;4.90;1.30;;;11.50;78.40;;;;;;5009181;28;20051;-80
2022/10/19 04:14:28;;;;;;;4.00;1.30;;;11.50;78.40;;;;;;5005621;28;20757;-80
2022/10/19 04:16:55;;;;;;;4.20;1.42;;;11.50;78.60;;;;;;4991171;28;20055;-80
2022/10/19 04:19:22;;;;;;;4.18;1.02;;;11.50;78.60;;;;;;5013905;28;20623;-80
2022/10/19 04:21:49;;;;;;;4.60;1.10;;;11.50;78.70;;;;;;5007421;28;20077;-80
2022/10/19 04:24:18;;;;;;;5.97;1.00;;;11.50;78.80;;;;;;5005313;28;20572;-80
2022/10/19 04:26:47;;;;;;;4.35;1.02;;;11.50;78.90;;;;;;4973106;28;20981;-80
2022/10/19 04:29:16;;;;;;;6.47;1.23;;;11.50;79.00;;;;;;5012104;28;20141;-80
2022/10/19 04:31:44;;;;;;;3.25;1.08;;;11.50;79.00;;;;;;5008835;28;20553;-80
2022/10/19 04:34:12;;;;;;;4.22;0.90;;;11.50;79.10;;;;;;5009009;28;20552;-80
2022/10/19 04:36:39;;;;;;;3.90;1.10;;;11.50;79.10;;;;;;5008958;28;20137;-80
2022/10/19 04:39:06;;;;;;;4.80;1.10;;;11.50;79.10;;;;;;5007344;28;20282;-80
2022/10/19 04:41:34;;;;;;;4.03;0.90;;;11.50;79.00;;;;;;5008772;28;20141;-80
2022/10/19 04:44:02;;;;;;;6.60;1.20;;;11.50;79.10;;;;;;5008607;28;20491;-80
2022/10/19 04:46:30;;;;;;;5.70;1.10;;;11.50;79.10;;;;;;5008457;28;20061;-80
2022/10/19 04:48:59;;;;;;;4.43;0.90;;;11.50;79.10;;;;;;5008653;28;20057;-80
2022/10/19 04:51:26;;;;;;;4.68;0.90;;;11.50;79.10;;;;;;5009994;28;20257;-80
2022/10/19 04:53:55;;;;;;;3.75;0.90;;;11.50;79.10;;;;;;5008246;28;20051;-80
2022/10/19 04:56:24;;;;;;;3.97;1.20;;;11.50;79.00;;;;;;5003373;28;20043;-80
2022/10/19 04:58:54;;;;;;;4.72;0.98;;;11.50;79.10;;;;;;5004581;28;20098;-80
2022/10/19 05:01:22;;;;;;;5.90;1.03;;;11.40;79.10;;;;;;4988635;28;20071;-80
2022/10/19 05:03:53;;;;;;;5.35;1.00;;;11.40;79.10;;;;;;4998605;28;20274;-80
2022/10/19 05:06:22;;;;;;;3.67;1.00;;;11.40;79.10;;;;;;5025924;28;20054;-80
2022/10/19 05:08:49;;;;;;;6.35;1.00;;;11.40;78.90;;;;;;5009224;28;20068;-79
2022/10/19 05:11:18;;;;;;;6.88;1.10;;;11.40;78.90;;;;;;5025442;28;20043;-80
2022/10/19 05:13:46;;;;;;;6.33;1.10;;;11.50;78.80;;;;;;5011373;28;20050;-80
2022/10/19 05:16:15;;;;;;;4.32;0.80;;;11.50;78.80;;;;;;5012712;28;20265;-79
2022/10/19 05:18:42;;;;;;;5.07;0.80;;;11.50;78.80;;;;;;5012528;28;20070;-80
2022/10/19 05:21:11;;;;;;;3.85;0.90;;;11.50;78.90;;;;;;5012021;28;20050;-80
2022/10/19 05:23:41;;;;;;;5.43;1.10;;;11.50;78.80;;;;;;5011711;28;20508;-80
2022/10/19 05:26:10;;;;;;;5.10;1.00;;;11.50;78.70;;;;;;5013659;28;20058;-80
2022/10/19 05:28:37;;;;;;;4.55;1.05;;;11.40;78.70;;;;;;5013625;28;20258;-80
2022/10/19 05:31:06;;;;;;;4.22;1.10;;;11.40;78.60;;;;;;5007418;28;20137;-80
2022/10/19 05:33:34;;;;;;;4.22;1.00;;;11.40;78.50;;;;;;5009021;28;20138;-80
2022/10/19 05:36:13;;;;;;;4.85;1.20;;;11.40;78.60;;;;;;4992345;28;20492;-80
2022/10/19 05:38:42;;;;;;;5.27;1.17;;;11.40;78.60;;;;;;4994657;28;20131;-80
2022/10/19 05:41:09;;;;;;;4.32;1.05;;;11.40;78.60;;;;;;4992176;28;20270;-80
2022/10/19 05:43:37;;;;;;;6.82;1.23;;;11.40;78.60;;;;;;4992089;28;20182;-80
2022/10/19 05:46:06;;;;;;;5.78;1.00;;;11.40;78.50;;;;;;4993041;28;20065;-80
2022/10/19 05:48:33;;;;;;;4.68;0.95;;;11.40;78.40;;;;;;4997797;28;20950;-80
2022/10/19 05:51:01;;;;;;;5.90;1.13;;;11.40;78.40;;;;;;4992041;28;20632;-80
2022/10/19 05:53:29;;;;;;;6.03;0.93;;;11.40;78.40;;;;;;5000652;28;20357;-80
2022/10/19 05:55:58;;;;;;;3.90;0.73;;;11.40;78.40;;;;;;5013373;28;20054;-80
2022/10/19 05:58:25;;;;;;;5.43;0.75;;;11.40;78.40;;;;;;5012975;28;20046;-79
2022/10/19 06:00:53;;;;;;;5.22;1.10;;;11.40;78.40;;;;;;5011323;28;20046;-80
2022/10/19 06:03:20;;;;;;;5.60;1.10;;;11.40;78.40;;;;;;5008110;28;20130;-80
2022/10/19 06:05:48;;;;;;;5.82;0.77;;;11.40;78.40;;;;;;4994272;28;20295;-80
2022/10/19 06:08:15;;;;;;;5.22;0.82;;;11.30;78.40;;;;;;5000391;28;20054;-81
2022/10/19 06:10:43;;;;;;;6.20;1.00;;;11.40;78.30;;;;;;5010648;28;20051;-80
2022/10/19 06:13:12;;;;;;;4.10;0.70;;;11.30;78.30;;;;;;4994994;28;20057;-81
2022/10/19 06:15:39;;;;;;;4.57;0.80;;;11.30;78.40;;;;;;5009721;28;20129;-81
2022/10/19 06:18:07;;;;;;;7.15;0.98;;;11.30;78.30;;;;;;5008936;28;20276;-81
2022/10/19 06:20:34;;;;;;;3.90;1.00;;;11.30;78.30;;;;;;5008916;28;20049;-80
2022/10/19 06:23:02;;;;;;;8.02;0.93;;;11.30;78.30;;;;;;4998397;28;20129;-81
2022/10/19 06:25:30;;;;;;;4.20;0.63;;;11.30;78.20;;;;;;4995031;28;20047;-81
2022/10/19 06:27:57;;;;;;;5.13;0.80;;;11.30;78.30;;;;;;5008776;28;20054;-81
2022/10/19 06:30:26;;;;;;;4.60;0.75;;;11.30;78.30;;;;;;4991583;28;20306;-81
2022/10/19 06:32:53;;;;;;;5.55;1.00;;;11.30;78.50;;;;;;5009659;28;20093;-80
2022/10/19 06:35:20;;;;;;;3.38;0.40;;;11.30;78.40;;;;;;5010011;28;20451;-81
2022/10/19 06:37:47;;;;;;;4.80;0.80;;;11.30;78.40;;;;;;5005871;28;20055;-81
2022/10/19 06:40:14;;;;;;;4.27;0.87;;;11.30;78.50;;;;;;4997846;28;20504;-81
2022/10/19 06:42:41;;;;;;;5.07;0.60;;;11.30;78.40;;;;;;5010692;28;20814;-81
2022/10/19 06:45:10;;;;;;;6.25;1.00;;;11.30;78.40;;;;;;5010340;28;20568;-81
2022/10/19 06:47:39;;;;;;;7.38;0.68;;;11.30;78.50;;;;;;5009174;28;20062;-81
2022/10/19 06:50:06;;;;;;;6.45;1.15;;;11.30;78.50;;;;;;4989277;28;20139;-80
2022/10/19 06:52:34;;;;;;;8.07;0.93;;;11.30;78.50;;;;;;5006287;28;20061;-82
2022/10/19 06:55:01;;;;;;;5.15;1.33;;;11.30;78.50;;;;;;5008971;28;20265;-82
2022/10/19 06:57:28;;;;;;;8.13;0.95;;;11.30;78.40;;;;;;5009599;28;20077;-82
2022/10/19 06:59:55;;;;;;;7.47;0.73;;;11.30;78.50;;;;;;5010335;28;20077;-82
2022/10/19 07:02:22;;;;;;;6.22;0.65;;;11.30;78.50;;;;;;5010503;28;20047;-82
2022/10/19 07:04:51;;;;;;;4.30;0.60;;;11.30;78.60;;;;;;5006909;28;20050;-82
2022/10/19 07:07:18;;;;;;;5.50;0.90;;;11.30;78.60;;;;;;5009366;28;20265;-80
2022/10/19 07:09:45;;;;;;;9.30;1.10;;;11.30;78.70;;;;;;4994194;28;20134;-85
2022/10/19 07:12:12;;;;;;;6.57;1.05;;;11.30;78.70;;;;;;4990596;28;20173;-84
2022/10/19 07:14:39;;;;;;;4.47;0.73;;;11.40;78.70;;;;;;4989337;28;20062;-81
2022/10/19 07:17:06;;;;;;;5.97;0.90;;;11.40;78.60;;;;;;5022966;28;20595;-83
2022/10/19 07:19:34;;;;;;;8.25;1.02;;;11.40;78.70;;;;;;5008988;28;20254;-84
2022/10/19 07:22:03;;;;;;;7.75;0.98;;;11.40;78.70;;;;;;5008762;28;20058;-84
2022/10/19 07:24:30;;;;;;;9.18;0.80;;;11.40;78.70;;;;;;4992468;28;20046;-83
2022/10/19 07:26:57;;;;;;;6.28;0.90;;;11.40;78.70;;;;;;5010533;28;20079;-84
2022/10/19 07:29:23;;;;;;;5.30;0.80;;;11.40;78.70;;;;;;4997604;28;20051;-84
2022/10/19 07:31:50;;;;;;;8.05;0.80;;;11.40;78.70;;;;;;5006188;28;20265;-82
2022/10/19 07:34:17;;;;;;;6.90;0.82;;;11.40;78.70;;;;;;5000006;28;20171;-81
2022/10/19 07:36:46;;;;;;;5.65;0.50;;;11.40;78.80;;;;;;5007562;28;20047;-83
2022/10/19 07:39:16;;;;;;;10.20;0.90;;;11.40;78.80;;;;;;5008696;28;20556;-83
2022/10/19 07:41:44;;;;;;;8.33;1.00;;;11.40;78.90;;;;;;5006214;28;20059;-80
2022/10/19 07:44:12;;;;;;;5.68;0.68;;;11.40;79.00;;;;;;5007597;28;20764;-80
2022/10/19 07:46:39;;;;;;;11.57;1.00;;;11.40;79.00;;;;;;5002717;28;20053;-80
2022/10/19 07:49:09;;;;;;;5.55;0.52;;;11.40;79.00;;;;;;4998252;28;21019;-82
2022/10/19 07:51:36;;;;;;;5.45;0.60;;;11.50;78.90;;;;;;5000336;28;20058;-85
2022/10/19 07:54:04;;;;;;;7.63;0.90;;;11.50;78.80;;;;;;5005252;28;20441;-82
2022/10/19 07:56:33;;;;;;;5.22;0.77;;;11.50;78.80;;;;;;5005624;28;20271;-82
2022/10/19 07:59:01;;;;;;;6.95;1.08;;;11.50;78.80;;;;;;5009160;28;20145;-82
2022/10/19 08:01:30;;;;;;;5.95;0.60;;;11.50;78.70;;;;;;4993480;28;20621;-79
2022/10/19 08:03:59;;;;;;;5.95;0.60;;;11.50;78.70;;;;;;5009330;28;20599;-80
2022/10/19 08:06:27;;;;;;;5.10;0.87;;;11.50;78.70;;;;;;5006314;28;20047;-80
2022/10/19 08:08:54;;;;;;;9.48;0.93;;;11.50;78.70;;;;;;4999913;28;20345;-80
2022/10/19 08:11:23;;;;;;;6.20;0.80;;;11.50;78.70;;;;;;5008065;28;20068;-82
2022/10/19 08:13:53;;;;;;;5.70;0.73;;;11.50;78.80;;;;;;4973049;28;20146;-81
2022/10/19 08:16:23;;;;;;;5.18;0.80;;;11.50;78.80;;;;;;5007101;28;20126;-79
2022/10/19 08:18:50;;;;;;;8.50;0.93;;;11.60;78.90;;;;;;5010132;28;20054;-81
2022/10/19 08:21:17;;;;;;;6.85;0.85;;;11.60;78.90;;;;;;5008604;28;20281;-79
2022/10/19 08:23:44;;;;;;;7.40;0.90;;;11.70;78.90;;;;;;4991214;28;20475;-79
2022/10/19 08:26:11;;;;;;;7.07;0.90;;;11.70;78.80;;;;;;5003304;28;20599;-79
2022/10/19 08:28:39;;;;;;;8.15;0.77;;;11.70;78.80;;;;;;4987053;28;20130;-79
2022/10/19 08:31:12;;;;;;;8.03;0.87;;;11.70;78.80;;;;;;4998198;28;20054;-80
2022/10/19 08:33:39;;;;;;;7.78;0.95;;;11.70;78.70;;;;;;5005035;28;20278;-83
2022/10/19 08:36:07;;;;;;;7.20;0.68;;;11.80;78.20;;;;;;5007575;28;20129;-80
2022/10/19 08:38:35;;;;;;;9.25;1.10;;;11.80;78.00;;;;;;5009048;28;20424;-80
2022/10/19 08:41:14;;;;;;;9.82;0.85;;;11.80;78.10;;;;;;5008720;28;20464;-80
2022/10/19 08:43:53;;;;;;;6.40;0.80;;;11.90;78.00;;;;;;5006595;28;20054;-80
2022/10/19 08:46:28;;;;;;;8.52;1.13;;;11.90;77.80;;;;;;5007713;28;20317;-80
2022/10/19 08:48:56;;;;;;;6.65;0.80;;;11.90;77.50;;;;;;5006638;28;20047;-79
2022/10/19 08:51:23;;;;;;;5.97;0.57;;;11.90;77.40;;;;;;5000013;28;20113;-81
2022/10/19 08:53:54;;;;;;;6.15;0.70;;;11.90;77.20;;;;;;4989731;28;20058;-80
2022/10/19 08:56:28;;;;;;;6.07;0.67;;;11.90;76.70;;;;;;5020475;28;20061;-79
2022/10/19 08:59:08;;;;;;;8.15;0.70;;;12.00;76.60;;;;;;5003053;28;20296;-77
2022/10/19 09:01:43;;;;;;;6.32;0.73;;;12.00;76.20;;;;;;4996591;28;20047;-80
2022/10/19 09:04:18;;;;;;;8.40;0.80;;;12.00;76.20;;;;;;5005865;28;20058;-81
2022/10/19 09:06:55;;;;;;;7.72;0.82;;;12.00;76.00;;;;;;5005749;28;20047;-80
2022/10/19 09:09:24;;;;;;;9.40;1.00;;;12.10;75.70;;;;;;5008356;28;20042;-79
2022/10/19 09:11:55;;;;;;;5.93;0.60;;;12.10;75.50;;;;;;5007806;28;20311;-81
2022/10/19 09:14:30;;;;;;;6.10;0.80;;;12.10;75.70;;;;;;5007323;28;20860;-80
2022/10/19 09:17:01;;;;;;;11.15;1.20;;;12.10;75.50;;;;;;5007084;28;20050;-81
2022/10/19 09:19:30;;;;;;;8.90;1.10;;;12.10;75.30;;;;;;4999651;28;20047;-82
2022/10/19 09:22:00;;;;;;;5.23;0.83;;;12.10;75.20;;;;;;5008388;28;20160;-81
2022/10/19 09:24:29;;;;;;;7.07;0.95;;;12.20;74.70;;;;;;5008542;28;20255;-80
2022/10/19 09:26:59;;;;;;;9.32;1.40;;;12.20;74.80;;;;;;5008750;28;20510;-79
2022/10/19 09:29:35;;;;;;;7.88;0.73;;;12.20;74.90;;;;;;5008320;28;20042;-80
2022/10/19 09:32:10;;;;;;;5.60;0.80;;;12.20;74.80;;;;;;5010342;28;20055;-80
2022/10/19 09:34:41;;;;;;;6.00;0.80;;;12.20;74.70;;;;;;5003329;28;20054;-81
2022/10/19 09:37:08;;;;;;;6.00;0.80;;;12.20;74.50;;;;;;5007975;28;20290;-80
2022/10/19 09:39:35;;;;;;;9.48;1.35;;;12.30;74.20;;;;;;5004043;28;20138;-80
2022/10/19 09:42:08;;;;;;;7.72;1.05;;;12.30;74.50;;;;;;4988677;28;20047;-80
2022/10/19 09:44:35;;;;;;;4.45;0.60;;;12.30;74.50;;;;;;4992088;28;20056;-83
2022/10/19 09:47:29;;;;;;;6.50;0.87;;;12.30;74.50;;;;;;5007992;28;20051;-79
2022/10/19 09:50:07;;;;;;;6.72;0.75;;;12.30;74.30;;;;;;5007807;28;20262;-79
2022/10/19 09:52:37;;;;;;;10.05;0.95;;;12.30;74.30;;;;;;5009466;28;20596;-80
2022/10/19 09:55:06;;;;;;;7.25;0.88;;;12.40;74.30;;;;;;4997122;28;20531;-81
2022/10/19 09:57:41;;;;;;;10.25;1.00;;;12.50;74.40;;;;;;5007344;28;20050;-77
2022/10/19 10:00:17;;;;;;;8.93;0.90;;;12.50;74.60;;;;;;4985363;28;20138;-77
2022/10/19 10:02:51;;;;;;;5.07;0.70;;;12.50;74.30;;;;;;4993183;28;20294;-80
2022/10/19 10:05:18;;;;;;;5.20;0.73;;;12.50;74.20;;;;;;4990732;28;20142;-81
2022/10/19 10:07:55;;;;;;;4.38;0.68;;;12.50;74.10;;;;;;4997253;28;20061;-79
2022/10/19 10:10:25;;;;;;;6.15;0.80;;;12.50;73.90;;;;;;5008769;28;20050;-80
2022/10/19 10:12:53;;;;;;;5.37;0.70;;;12.50;73.60;;;;;;4994160;28;20081;-80
2022/10/19 10:15:24;;;;;;;8.05;1.00;;;12.50;73.60;;;;;;5010709;28;20253;-79
2022/10/19 10:17:55;;;;;;;3.95;0.50;;;12.60;73.40;;;;;;5010993;28;20141;-81
2022/10/19 10:20:26;;;;;;;5.28;0.73;;;12.60;73.20;;;;;;5013661;28;20138;-82
2022/10/19 10:22:57;;;;;;;5.38;0.90;;;12.60;73.20;;;;;;5010836;28;20423;-78
2022/10/19 10:25:27;;;;;;;5.23;0.40;;;12.70;72.90;;;;;;5006699;28;20081;-78
2022/10/19 10:27:57;;;;;;;7.53;0.60;;;12.70;73.20;;;;;;4989493;28;20306;-78
2022/10/19 10:30:26;;;;;;;9.60;0.77;;;12.70;73.00;;;;;;4987683;28;20656;-79
2022/10/19 10:32:56;;;;;;;5.13;0.60;;;12.70;72.80;;;;;;4989993;28;20047;-80
2022/10/19 10:35:27;;;;;;;5.43;0.70;;;12.70;72.70;;;;;;5002264;28;20556;-79
2022/10/19 10:38:05;;;;;;;6.27;0.80;;;12.80;72.70;;;;;;4990081;28;20051;-83
2022/10/19 10:40:33;;;;;;;6.65;0.68;;;12.80;73.00;;;;;;4999103;28;20287;-82
2022/10/19 10:43:04;;;;;;;5.00;0.60;;;12.80;73.10;;;;;;5005699;28;20097;-81
2022/10/19 10:45:36;;;;;;;7.00;0.82;;;12.90;73.10;;;;;;4988155;28;20046;-81
2022/10/19 10:48:19;;;;;;;5.97;0.82;;;12.90;73.10;;;;;;5010704;28;20084;-78
2022/10/19 10:50:47;;;;;;;7.10;1.00;;;12.90;72.80;;;;;;5007006;28;20059;-80
2022/10/19 10:53:34;;;;;;;6.05;0.90;;;12.90;72.50;;;;;;5009584;28;20297;-80
2022/10/19 10:56:01;;;;;;;6.22;0.90;;;13.00;72.20;;;;;;4974495;28;20101;-80
2022/10/19 10:58:36;;;;;;;8.98;1.10;;;13.00;72.20;;;;;;5007689;28;21166;-80
2022/10/19 11:01:12;;;;;;;5.97;1.10;;;13.00;71.80;;;;;;5005687;28;20058;-78
2022/10/19 11:03:46;;;;;;;5.10;1.00;;;13.00;72.10;;;;;;5010499;28;20050;-79
2022/10/19 11:06:17;;;;;;;7.50;0.80;;;13.10;72.20;;;;;;4989928;28;20290;-80
2022/10/19 11:08:49;;;;;;;4.07;0.90;;;13.10;71.90;;;;;;4987173;28;20057;-79
2022/10/19 11:11:21;;;;;;;5.07;0.93;;;13.10;71.70;;;;;;5009508;28;20053;-80
2022/10/19 11:13:52;;;;;;;7.13;1.13;;;13.10;71.60;;;;;;5009465;28;20061;-80
2022/10/19 11:16:25;;;;;;;5.97;1.17;;;13.10;71.60;;;;;;5009774;28;20080;-79
2022/10/19 11:18:58;;;;;;;8.15;1.48;;;13.10;71.80;;;;;;5007594;28;20320;-79
2022/10/19 11:21:31;;;;;;;5.85;1.27;;;13.10;71.80;;;;;;5010763;28;20046;-79
2022/10/19 11:24:10;;;;;;;6.10;1.00;;;13.20;71.70;;;;;;5008982;28;20123;-79
2022/10/19 11:26:56;;;;;;;6.50;1.23;;;13.20;71.50;;;;;;5010171;28;20055;-79
2022/10/19 11:29:42;;;;;;;7.73;1.23;;;13.20;71.30;;;;;;5009958;28;20053;-78
2022/10/19 11:32:17;;;;;;;4.32;1.40;;;13.30;71.10;;;;;;4997664;28;20255;-78
2022/10/19 11:35:11;;;;;;;5.78;1.15;;;13.20;71.50;;;;;;5008394;28;20050;-77
2022/10/19 11:37:50;;;;;;;6.55;0.88;;;13.30;71.40;;;;;;5007343;28;20058;-77
2022/10/19 11:40:23;;;;;;;6.28;1.30;;;13.30;71.20;;;;;;5003634;28;20051;-76
2022/10/19 11:42:57;;;;;;;4.63;1.13;;;13.30;70.90;;;;;;4989435;28;20132;-77
2022/10/19 11:45:35;;;;;;;4.35;0.60;;;13.30;71.10;;;;;;5006305;28;20340;-77
2022/10/19 11:48:22;;;;;;;5.60;0.90;;;13.30;70.80;;;;;;4992481;28;20063;-77
2022/10/19 11:51:21;;;;;;;5.65;1.08;;;13.30;70.70;;;;;;4970097;28;20070;-80
2022/10/19 11:54:00;;;;;;;6.75;0.80;;;13.30;70.60;;;;;;4991918;28;20449;-78
2022/10/19 11:56:34;;;;;;;5.63;0.90;;;13.30;70.90;;;;;;4990964;28;20458;-78
2022/10/19 11:59:10;;;;;;;6.47;1.10;;;13.30;71.10;;;;;;5009172;28;20278;-78
2022/10/19 12:01:53;;;;;;;5.05;0.73;;;13.30;71.20;;;;;;5017949;28;20535;-78
2022/10/19 12:04:41;;;;;;;6.53;0.90;;;13.40;71.30;;;;;;4997657;28;20522;-79
2022/10/19 12:07:22;;;;;;;5.72;1.05;;;13.50;71.50;;;;;;5006653;28;20050;-78
2022/10/19 12:10:02;;;;;;;6.20;0.90;;;13.50;71.80;;;;;;5008821;28;20061;-78
2022/10/19 12:12:33;;;;;;;6.03;1.10;;;13.50;72.20;;;;;;4990942;28;20731;-78
2022/10/19 12:15:19;;;;;;;6.28;0.85;;;13.60;72.20;;;;;;4973075;28;20043;-79
2022/10/19 12:17:49;;;;;;;8.25;0.90;;;13.60;72.20;;;;;;4991309;28;20142;-78
2022/10/19 12:20:25;;;;;;;4.80;1.00;;;13.70;72.20;;;;;;5027005;28;20125;-78
2022/10/19 12:22:52;;;;;;;4.93;0.70;;;13.90;72.40;;;;;;5008111;28;20151;-79
2022/10/19 12:25:21;;;;;;;4.88;0.68;;;13.90;72.20;;;;;;5010201;28;20683;-79
2022/10/19 12:27:50;;;;;;;6.20;0.75;;;14.00;71.70;;;;;;5012769;28;21060;-78
2022/10/19 12:30:20;;;;;;;4.43;0.73;;;14.00;71.30;;;;;;5027231;28;20097;-78
2022/10/19 12:33:01;;;;;;;7.10;1.02;;;14.10;71.20;;;;;;5006633;28;20634;-78
2022/10/19 12:35:49;;;;;;;6.77;0.90;;;14.10;71.10;;;;;;5010746;28;20043;-78
2022/10/19 12:38:21;;;;;;;3.53;0.63;;;14.20;70.40;;;;;;4988730;28;20847;-78
2022/10/19 12:40:56;;;;;;;4.78;0.73;;;14.20;70.60;;;;;;5006382;28;20047;-78
2022/10/19 12:43:33;;;;;;;6.95;1.20;;;14.20;70.90;;;;;;4997918;28;20054;-78
2022/10/19 12:46:13;;;;;;;6.10;1.20;;;14.30;71.00;;;;;;4996239;28;20185;-81
2022/10/19 12:48:41;;;;;;;5.07;0.87;;;14.30;70.80;;;;;;4977425;28;20057;-79
2022/10/19 12:51:14;;;;;;;5.68;1.00;;;14.40;70.20;;;;;;4972302;28;20266;-79
2022/10/19 12:53:46;;;;;;;4.30;0.90;;;14.40;69.90;;;;;;5001323;28;20137;-81
2022/10/19 12:56:22;;;;;;;6.18;0.93;;;14.50;69.80;;;;;;5028406;28;20050;-82
2022/10/19 12:58:53;;;;;;;8.15;0.90;;;14.50;69.40;;;;;;5014430;28;20055;-79
2022/10/19 13:01:24;;;;;;;6.30;1.00;;;14.50;68.80;;;;;;4972417;28;20061;-79
2022/10/19 13:04:05;;;;;;;5.50;0.70;;;14.50;69.40;;;;;;5008159;28;20262;-80